Time;durP1;ratioP1;P1;durP2;ratioP2;P2;SDS_P1;SDS_P2;PMS_P1;PMS_P2;Temp;Humidity;BMP_temperature;BMP_pressure;BME280_temperature;BME280_humidity;BME280_pressure;Samples;Min_cycle;Max_cycle;Signal;HPM_P1;HPM_P2
2022/03/28 00:00:05;;;;;;;41.47;22.48;;;;;;;;;;5051922;28;20021;-88
2022/03/28 00:02:32;;;;;;;;;;;;;;;;;;5035223;28;20091;-88
2022/03/28 00:04:58;;;;;;;42.90;21.77;;;;;;;;;;5035088;28;19984;-88
2022/03/28 00:07:24;;;;;;;42.20;23.02;;;;;;;;;;5034354;28;20036;-87
2022/03/28 00:09:50;;;;;;;42.17;22.23;;;;;;;;;;5052000;28;20047;-89
2022/03/28 00:12:16;;;;;;;44.40;22.35;;;;;;;;;;5034155;28;20122;-87
2022/03/28 00:14:42;;;;;;;44.00;22.38;;;;;;;;;;5034202;28;20032;-90
2022/03/28 00:17:08;;;;;;;40.38;22.50;;;;;;;;;;5033757;28;20020;-89
2022/03/28 00:19:34;;;;;;;41.92;22.27;;;;;;;;;;5034067;28;20029;-87
2022/03/28 00:22:00;;;;;;;41.70;22.77;;;;;;;;;;5052539;28;20400;-91
2022/03/28 00:24:26;;;;;;;45.28;23.67;;;;;;;;;;5033276;28;20384;-91
2022/03/28 00:26:54;;;;;;;40.38;21.65;;;;;;;;;;5034001;28;20124;-89
2022/03/28 00:29:21;;;;;;;;;;;;;;;;;;5034178;28;20037;-91
2022/03/28 00:31:47;;;;;;;40.38;22.10;;;;;;;;;;5034048;28;19956;-90
2022/03/28 00:34:15;;;;;;;39.58;21.88;;;;;;;;;;5034041;28;20024;-90
2022/03/28 00:36:41;;;;;;;50.58;22.30;;;;;;;;;;5033756;28;20416;-90
2022/03/28 00:39:07;;;;;;;34.97;20.98;;;;;;;;;;5033890;28;20037;-90
2022/03/28 00:41:34;;;;;;;40.67;21.98;;;;;;;;;;5034136;28;20384;-89
2022/03/28 00:44:00;;;;;;;37.45;21.73;;;;;;;;;;5034492;28;20064;-90
2022/03/28 00:46:26;;;;;;;44.90;22.73;;;;;;;;;;5033677;28;20120;-90
2022/03/28 00:48:53;;;;;;;39.03;22.02;;;;;;;;;;5033983;28;20021;-89
2022/03/28 00:51:20;;;;;;;46.53;21.73;;;;;;;;;;5033690;28;20031;-89
2022/03/28 00:53:46;;;;;;;41.65;21.60;;;;;;;;;;5050962;28;20393;-89
2022/03/28 00:56:13;;;;;;;40.17;21.95;;;;;;;;;;5051145;28;20064;-90
2022/03/28 00:58:39;;;;;;;43.38;22.80;;;;;;;;;;5033155;28;20535;-89
2022/03/28 01:01:05;;;;;;;46.45;22.20;;;;;;;;;;5034174;28;20065;-89
2022/03/28 01:03:31;;;;;;;41.72;21.70;;;;;;;;;;5034097;28;20036;-89
2022/03/28 01:05:58;;;;;;;44.30;22.00;;;;;;;;;;5033564;28;20029;-90
2022/03/28 01:08:24;;;;;;;39.95;23.05;;;;;;;;;;5033461;28;20021;-88
2022/03/28 01:10:52;;;;;;;41.55;22.08;;;;;;;;;;5033411;28;20081;-90
2022/03/28 01:13:18;;;;;;;38.53;21.85;;;;;;;;;;5033129;28;20029;-90
2022/03/28 01:15:44;;;;;;;44.95;22.08;;;;;;;;;;5033148;28;20064;-89
2022/03/28 01:18:11;;;;;;;42.10;22.55;;;;;;;;;;5032900;28;20063;-90
2022/03/28 01:20:39;;;;;;;44.00;21.48;;;;;;;;;;5033065;28;20021;-88
2022/03/28 01:23:06;;;;;;;40.20;22.05;;;;;;;;;;5033595;28;20477;-87
2022/03/28 01:25:32;;;;;;;38.20;20.88;;;;;;;;;;5033387;28;20048;-89
2022/03/28 01:27:59;;;;;;;42.15;20.70;;;;;;;;;;5032722;28;20035;-89
2022/03/28 01:30:26;;;;;;;42.17;21.92;;;;;;;;;;5050633;28;20029;-90
2022/03/28 01:32:53;;;;;;;44.47;22.92;;;;;;;;;;5032718;28;20025;-89
2022/03/28 01:35:35;;;;;;;41.05;21.70;;;;;;;;;;5049194;28;20024;-89
2022/03/28 01:38:07;;;;;;;44.33;21.08;;;;;;;;;;5050539;28;20029;-88
2022/03/28 01:40:40;;;;;;;40.58;21.55;;;;;;;;;;5033683;28;20404;-90
2022/03/28 01:46:15;;;;;;;38.50;20.77;;;;;;;;;;4999929;28;20542;-89
2022/03/28 01:49:08;;;;;;;;;;;;;;;;;;;;;
2022/03/28 01:54:41;;;;;;;45.00;20.70;;;;;;;;;;5051015;28;20029;-90
2022/03/28 01:57:10;;;;;;;40.17;21.30;;;;;;;;;;5033339;28;20120;-90
2022/03/28 01:59:39;;;;;;;41.00;21.55;;;;;;;;;;5033602;28;20120;-90
2022/03/28 02:02:15;;;;;;;44.80;20.60;;;;;;;;;;5033239;28;20025;-91
2022/03/28 02:04:43;;;;;;;36.47;20.27;;;;;;;;;;5032649;28;20021;-89
2022/03/28 02:07:09;;;;;;;40.10;20.92;;;;;;;;;;5033118;28;20067;-87
2022/03/28 02:09:38;;;;;;;37.22;20.20;;;;;;;;;;5033278;28;20037;-90
2022/03/28 02:12:04;;;;;;;44.90;21.40;;;;;;;;;;5032799;28;20053;-88
2022/03/28 02:14:30;;;;;;;39.47;21.20;;;;;;;;;;5032598;28;20244;-89
2022/03/28 02:16:56;;;;;;;44.47;21.80;;;;;;;;;;5032527;28;20079;-89
2022/03/28 02:19:23;;;;;;;43.13;21.05;;;;;;;;;;5050045;28;20021;-88
2022/03/28 02:21:49;;;;;;;43.17;20.85;;;;;;;;;;5032307;28;20075;-87
2022/03/28 02:24:15;;;;;;;38.50;20.75;;;;;;;;;;5032214;28;20033;-89
2022/03/28 02:26:41;;;;;;;42.63;21.92;;;;;;;;;;5032518;28;20025;-88
2022/03/28 02:29:07;;;;;;;43.42;21.38;;;;;;;;;;5033057;28;20044;-89
2022/03/28 02:31:42;;;;;;;38.58;21.13;;;;;;;;;;5032351;28;20027;-89
2022/03/28 02:34:08;;;;;;;40.70;21.33;;;;;;;;;;5032868;28;20028;-88
2022/03/28 02:36:41;;;;;;;37.95;20.42;;;;;;;;;;5032312;28;20021;-88
2022/03/28 02:39:07;;;;;;;40.20;21.02;;;;;;;;;;5032943;28;20025;-88
2022/03/28 02:41:33;;;;;;;42.38;22.02;;;;;;;;;;5032531;28;20136;-88
2022/03/28 02:43:59;;;;;;;43.70;21.63;;;;;;;;;;5032459;28;20032;-90
2022/03/28 02:46:38;;;;;;;;;;;;;;;;;;;;;
2022/03/28 02:49:05;;;;;;;45.20;20.92;;;;;;;;;;5054076;28;20036;-89
2022/03/28 02:51:33;;;;;;;45.55;22.38;;;;;;;;;;5036366;28;20460;-89
2022/03/28 02:54:14;;;;;;;37.13;20.63;;;;;;;;;;5036523;28;20082;-90
2022/03/28 03:00:07;;;;;;;43.58;21.85;;;;;;;;;;4953850;29;20031;-92
2022/03/28 03:02:45;;;;;;;41.22;20.73;;;;;;;;;;4931165;29;20050;-89
2022/03/28 03:05:16;;;;;;;40.88;21.85;;;;;;;;;;5018252;28;20033;-90
2022/03/28 03:07:42;;;;;;;40.80;20.77;;;;;;;;;;5036687;28;20025;-91
2022/03/28 03:10:19;;;;;;;;;;;;;;;;;;;;;
2022/03/28 03:12:48;;;;;;;41.58;21.23;;;;;;;;;;5054225;28;20028;-89
2022/03/28 03:15:14;;;;;;;;;;;;;;;;;;5036283;28;20021;-90
2022/03/28 03:17:40;;;;;;;42.80;21.45;;;;;;;;;;5036450;28;19912;-89
2022/03/28 03:20:07;;;;;;;40.90;20.88;;;;;;;;;;5035743;28;20033;-89
2022/03/28 03:22:53;;;;;;;36.85;20.70;;;;;;;;;;5035434;28;20468;-90
2022/03/28 03:25:57;;;;;;;34.15;19.60;;;;;;;;;;5053595;28;20025;-89
2022/03/28 03:28:23;;;;;;;37.28;20.90;;;;;;;;;;5051900;28;20119;-88
2022/03/28 03:30:49;;;;;;;40.65;21.35;;;;;;;;;;5035184;28;20533;-88
2022/03/28 03:33:15;;;;;;;38.92;20.85;;;;;;;;;;5034968;28;20090;-88
2022/03/28 03:35:41;;;;;;;39.35;20.33;;;;;;;;;;5035887;28;20037;-90
2022/03/28 03:38:07;;;;;;;38.10;19.90;;;;;;;;;;5035136;28;20473;-89
2022/03/28 03:40:33;;;;;;;38.90;20.35;;;;;;;;;;5034990;28;20025;-88
2022/03/28 03:42:59;;;;;;;38.55;20.92;;;;;;;;;;5053424;28;20037;-89
2022/03/28 03:45:26;;;;;;;40.00;20.48;;;;;;;;;;5035216;28;20083;-89
2022/03/28 03:47:52;;;;;;;34.50;19.77;;;;;;;;;;5053283;28;20029;-88
2022/03/28 03:51:01;;;;;;;39.10;20.48;;;;;;;;;;5035748;28;20404;-90
2022/03/28 04:35:41;;;;;;;35.65;18.33;;;;;;;;;;5567864;22;20201;-88
2022/03/28 04:38:12;;;;;;;32.50;18.48;;;;;;;;;;5053576;28;20492;-87
2022/03/28 04:40:38;;;;;;;31.70;18.55;;;;;;;;;;5053510;28;20091;-87
2022/03/28 04:43:05;;;;;;;37.45;20.05;;;;;;;;;;5071029;28;20076;-88
2022/03/28 04:45:32;;;;;;;32.28;18.13;;;;;;;;;;5053014;28;20020;-86
2022/03/28 04:47:58;;;;;;;34.15;18.35;;;;;;;;;;5070830;28;20020;-88
2022/03/28 04:50:24;;;;;;;33.85;19.63;;;;;;;;;;5070841;28;20024;-87
2022/03/28 04:52:50;;;;;;;40.67;19.83;;;;;;;;;;5070749;28;20020;-87
2022/03/28 04:55:16;;;;;;;35.22;19.98;;;;;;;;;;5053876;28;20055;-87
2022/03/28 04:57:42;;;;;;;35.53;20.17;;;;;;;;;;5071156;28;20060;-87
2022/03/28 05:00:09;;;;;;;33.17;20.02;;;;;;;;;;5071190;28;20376;-87
2022/03/28 05:02:36;;;;;;;32.33;19.35;;;;;;;;;;5070500;28;20029;-87
2022/03/28 05:05:05;;;;;;;31.83;19.10;;;;;;;;;;5052734;28;20031;-87
2022/03/28 05:07:32;;;;;;;35.58;19.20;;;;;;;;;;5054195;28;20115;-88
2022/03/28 05:09:59;;;;;;;37.10;19.95;;;;;;;;;;5052502;28;20511;-87
2022/03/28 05:12:25;;;;;;;32.78;20.73;;;;;;;;;;5052289;28;20115;-87
2022/03/28 05:14:52;;;;;;;39.63;20.05;;;;;;;;;;5070195;28;20373;-87
2022/03/28 05:17:31;;;;;;;34.78;21.35;;;;;;;;;;5052771;28;20028;-87
2022/03/28 15:44:46;;;;;;;26.47;5.90;;;;;;;;;;4953380;28;20130;-90
2022/03/28 15:47:12;;;;;;;22.70;6.13;;;;;;;;;;4952733;28;20129;-89
2022/03/28 15:49:38;;;;;;;21.15;5.70;;;;;;;;;;4940051;28;20032;-88
2022/03/28 15:52:05;;;;;;;15.90;5.97;;;;;;;;;;4940649;29;20492;-89
2022/03/28 15:54:31;;;;;;;21.58;5.57;;;;;;;;;;4939379;28;20411;-88
2022/03/28 15:56:57;;;;;;;18.90;4.82;;;;;;;;;;4934580;29;20036;-90
2022/03/28 15:59:26;;;;;;;18.88;5.50;;;;;;;;;;4937935;28;20046;-88
2022/03/28 16:02:05;;;;;;;26.33;5.93;;;;;;;;;;4948120;29;20074;-90
2022/03/28 16:04:34;;;;;;;22.45;5.57;;;;;;;;;;4953777;29;20476;-89
2022/03/28 16:07:00;;;;;;;28.70;6.38;;;;;;;;;;4953283;28;20023;-91
2022/03/28 16:09:26;;;;;;;21.20;5.72;;;;;;;;;;4953369;28;20118;-92
2022/03/28 16:11:55;;;;;;;19.77;5.35;;;;;;;;;;4953464;28;20479;-91
2022/03/28 16:14:22;;;;;;;24.10;6.28;;;;;;;;;;4953944;28;20063;-89
2022/03/28 16:16:49;;;;;;;18.00;5.60;;;;;;;;;;4953112;28;20082;-87
2022/03/28 16:19:15;;;;;;;22.15;6.63;;;;;;;;;;4952503;29;20499;-88
2022/03/28 16:21:46;;;;;;;30.58;6.40;;;;;;;;;;4952718;28;20035;-88
2022/03/28 16:24:15;;;;;;;23.75;6.22;;;;;;;;;;4952283;28;20350;-87
2022/03/28 16:26:44;;;;;;;20.08;6.00;;;;;;;;;;4952287;28;20024;-87
2022/03/28 16:29:11;;;;;;;25.45;7.57;;;;;;;;;;4952896;28;20027;-87
2022/03/28 16:31:52;;;;;;;39.50;8.00;;;;;;;;;;4951471;28;20118;-91
2022/03/28 16:34:18;;;;;;;25.85;8.07;;;;;;;;;;4940594;29;20028;-90
2022/03/28 16:36:44;;;;;;;20.17;7.53;;;;;;;;;;4941080;28;20048;-90
2022/03/28 16:39:19;;;;;;;22.45;7.03;;;;;;;;;;4941837;29;20501;-90
2022/03/28 16:41:48;;;;;;;23.17;6.72;;;;;;;;;;4943862;29;20031;-91
2022/03/28 16:44:17;;;;;;;20.05;7.10;;;;;;;;;;4942196;28;20043;-91
2022/03/28 16:46:43;;;;;;;22.90;8.38;;;;;;;;;;4939836;29;20031;-90
2022/03/28 16:55:28;;;;;;;26.63;7.57;;;;;;;;;;4936786;29;20036;-89
2022/03/28 16:57:55;;;;;;;20.27;7.05;;;;;;;;;;4940917;29;20043;-92
2022/03/28 17:00:50;;;;;;;26.77;7.88;;;;;;;;;;4941468;28;20027;-89
2022/03/28 17:03:17;;;;;;;21.27;6.60;;;;;;;;;;4940942;29;20040;-87
2022/03/28 17:05:52;;;;;;;27.35;8.68;;;;;;;;;;4939328;28;20031;-89
2022/03/28 17:08:19;;;;;;;23.13;8.30;;;;;;;;;;4944086;29;20038;-88
2022/03/28 17:10:45;;;;;;;28.63;8.68;;;;;;;;;;4951572;28;20030;-89
2022/03/28 17:16:50;;;;;;;;;;;;;;;;;;;;;
2022/03/28 17:19:41;;;;;;;31.30;12.48;;;;;;;;;;4939683;29;20039;-91
2022/03/28 17:22:34;;;;;;;30.13;11.77;;;;;;;;;;4942057;29;20027;-90
2022/03/28 17:25:01;;;;;;;24.27;11.32;;;;;;;;;;4948861;29;20049;-87
2022/03/28 17:37:21;;;;;;;29.38;9.23;;;;;;;;;;4875378;29;20030;-90
2022/03/28 17:43:08;;;;;;;38.00;16.80;;;;;;;;;;4912290;29;20032;-90
2022/03/28 17:45:48;;;;;;;;;;;;;;;;;;;;;
2022/03/28 17:48:14;;;;;;;62.08;23.95;;;;;;;;;;4910584;28;20031;-88
2022/03/28 17:50:41;;;;;;;39.00;21.10;;;;;;;;;;4950976;28;20027;-87
2022/03/28 17:53:08;;;;;;;43.38;19.95;;;;;;;;;;4950781;28;20055;-88
2022/03/28 17:55:37;;;;;;;42.42;19.10;;;;;;;;;;4952376;28;20118;-88
2022/03/28 17:58:06;;;;;;;39.75;17.23;;;;;;;;;;4952993;29;20462;-89
2022/03/28 18:00:32;;;;;;;35.95;14.63;;;;;;;;;;4951263;29;20016;-88
2022/03/28 18:02:59;;;;;;;37.03;14.60;;;;;;;;;;4950637;28;20043;-87
2022/03/28 18:05:26;;;;;;;44.72;14.60;;;;;;;;;;4951292;28;20026;-86
2022/03/28 18:07:52;;;;;;;33.92;13.00;;;;;;;;;;4950471;28;20035;-87
2022/03/28 18:10:18;;;;;;;26.63;11.18;;;;;;;;;;4950658;28;20023;-87
2022/03/28 18:12:46;;;;;;;26.85;10.07;;;;;;;;;;4949893;28;20069;-87
2022/03/28 18:15:15;;;;;;;22.45;8.98;;;;;;;;;;4951250;28;20039;-87
2022/03/28 18:17:42;;;;;;;34.10;7.75;;;;;;;;;;4949306;28;20050;-87
2022/03/28 18:20:27;;;;;;;18.35;6.63;;;;;;;;;;4951608;28;20484;-91
2022/03/28 18:22:53;;;;;;;18.95;6.57;;;;;;;;;;4951426;28;20042;-87
2022/03/28 18:25:25;;;;;;;17.08;5.95;;;;;;;;;;4951185;29;20118;-88
2022/03/28 18:27:51;;;;;;;21.15;6.65;;;;;;;;;;4950543;28;20028;-88
2022/03/28 18:30:23;;;;;;;23.13;6.45;;;;;;;;;;4950078;28;20023;-90
2022/03/28 18:33:01;;;;;;;19.33;5.70;;;;;;;;;;4951743;28;20027;-88
2022/03/28 18:35:38;;;;;;;20.43;5.80;;;;;;;;;;4954412;29;20174;-87
2022/03/28 18:38:16;;;;;;;22.25;6.75;;;;;;;;;;4954656;29;20275;-88
2022/03/28 18:41:00;;;;;;;22.45;6.43;;;;;;;;;;4952087;29;20393;-89
2022/03/28 18:43:35;;;;;;;30.15;6.32;;;;;;;;;;4953159;29;20032;-89
2022/03/28 18:46:03;;;;;;;18.25;6.53;;;;;;;;;;4950762;29;20039;-88
2022/03/28 18:48:29;;;;;;;;;;;;;;;;;;4953309;28;20019;-89
2022/03/28 18:50:55;;;;;;;20.92;6.30;;;;;;;;;;4951826;28;19946;-89
2022/03/28 19:03:20;;;;;;;25.00;7.90;;;;;;;;;;4800952;29;20174;-89
2022/03/28 19:11:59;;;;;;;24.13;6.90;;;;;;;;;;4828089;29;20035;-89
2022/03/28 19:14:27;;;;;;;18.13;6.88;;;;;;;;;;4839864;29;20105;-89
2022/03/28 19:20:11;;;;;;;25.00;7.60;;;;;;;;;;4858791;29;20030;-88
2022/03/28 19:54:38;;;;;;;;;;;;;;;;;;5127566;27;19915;-89
2022/03/28 19:57:04;;;;;;;;;;;;;;;;;;5126593;28;19957;-88
2022/03/28 19:59:30;;;;;;;;;;;;;;;;;;5127047;28;19908;-89
2022/03/28 20:01:58;;;;;;;;;;;;;;;;;;5129268;28;19907;-87
2022/03/28 20:04:24;;;;;;;;;;;;;;;;;;5129970;27;19911;-90
2022/03/28 20:06:50;;;;;;;;;;;;;;;;;;5126103;28;19908;-89
2022/03/28 20:09:18;;;;;;;;;;;;;;;;;;5126535;28;19938;-88
2022/03/28 20:11:44;;;;;;;;;;;;;;;;;;5127590;28;19919;-90
2022/03/28 20:14:13;;;;;;;;;;;;;;;;;;5128974;28;19907;-87
2022/03/28 20:16:39;;;;;;;;;;;;;;;;;;5127473;28;19946;-93
2022/03/28 20:19:05;;;;;;;;;;;;;;;;;;5127468;28;20295;-88
2022/03/28 20:21:31;;;;;;;;;;;;;;;;;;5129161;27;19908;-91
2022/03/28 20:23:57;;;;;;;;;;;;;;;;;;5138197;27;19946;-87
2022/03/28 20:26:23;;;;;;;;;;;;;;;;;;5137019;27;20371;-88
2022/03/28 20:28:49;;;;;;;;;;;;;;;;;;5136091;27;19908;-88
2022/03/28 20:31:15;;;;;;;;;;;;;;;;;;5138719;27;19918;-90
2022/03/28 20:33:41;;;;;;;;;;;;;;;;;;5134996;27;20280;-89
2022/03/28 20:36:08;;;;;;;;;;;;;;;;;;5134907;27;19938;-88
2022/03/28 20:38:36;;;;;;;;;;;;;;;;;;5135619;27;19923;-91
2022/03/28 20:41:04;;;;;;;;;;;;;;;;;;5136484;27;19961;-89
2022/03/28 20:43:30;;;;;;;;;;;;;;;;;;5126526;28;19967;-87
2022/03/28 20:45:56;;;;;;;;;;;;;;;;;;5126865;28;20283;-90
2022/03/28 20:48:22;;;;;;;;;;;;;;;;;;5126636;28;19961;-90
2022/03/28 20:50:48;;;;;;;;;;;;;;;;;;5126554;28;20290;-88
2022/03/28 20:53:14;;;;;;;;;;;;;;;;;;5125800;28;19919;-88
2022/03/28 20:55:40;;;;;;;;;;;;;;;;;;5111355;28;19927;-88
2022/03/28 20:58:08;;;;;;;;;;;;;;;;;;5110637;28;19908;-90
2022/03/28 21:00:34;;;;;;;;;;;;;;;;;;5110829;28;19911;-88
2022/03/28 21:03:00;;;;;;;;;;;;;;;;;;5112696;28;19927;-91
2022/03/28 21:05:26;;;;;;;;;;;;;;;;;;5113742;28;19988;-88
2022/03/28 21:07:52;;;;;;;;;;;;;;;;;;5112891;28;19907;-88
2022/03/28 21:10:18;;;;;;;;;;;;;;;;;;5111888;28;20024;-88
2022/03/28 21:12:44;;;;;;;;;;;;;;;;;;5112068;28;19976;-87
2022/03/28 21:15:10;;;;;;;;;;;;;;;;;;5111879;28;19914;-86
2022/03/28 21:17:36;;;;;;;;;;;;;;;;;;5113023;28;19994;-88
2022/03/28 21:20:03;;;;;;;;;;;;;;;;;;5111703;28;19995;-87
2022/03/28 21:22:29;;;;;;;;;;;;;;;;;;5111649;28;19916;-87
2022/03/28 21:24:55;;;;;;;;;;;;;;;;;;5112353;28;19976;-88
2022/03/28 21:27:21;;;;;;;;;;;;;;;;;;5112846;28;20253;-87
2022/03/28 21:29:47;;;;;;;;;;;;;;;;;;5111654;28;19912;-87
2022/03/28 21:32:13;;;;;;;;;;;;;;;;;;5111358;28;20398;-89
2022/03/28 21:34:41;;;;;;;;;;;;;;;;;;5111310;28;19939;-87
2022/03/28 21:37:07;;;;;;;;;;;;;;;;;;5111482;28;19911;-86
2022/03/28 21:39:38;;;;;;;;;;;;;;;;;;5111387;28;19989;-89
2022/03/28 21:42:04;;;;;;;;;;;;;;;;;;5111202;28;19914;-87
2022/03/28 21:44:30;;;;;;;;;;;;;;;;;;5112592;28;19908;-87
2022/03/28 21:46:56;;;;;;;;;;;;;;;;;;5113346;28;19915;-87
2022/03/28 21:49:22;;;;;;;;;;;;;;;;;;5111059;28;19908;-88
2022/03/28 21:51:48;;;;;;;;;;;;;;;;;;5111006;28;19915;-87
2022/03/28 21:54:14;;;;;;;;;;;;;;;;;;5110861;28;20356;-90
2022/03/28 21:56:40;;;;;;;;;;;;;;;;;;5111050;28;19908;-87
2022/03/28 21:59:06;;;;;;;;;;;;;;;;;;5112701;28;19947;-86
2022/03/28 22:01:32;;;;;;;;;;;;;;;;;;5112617;28;20002;-88
2022/03/28 22:03:58;;;;;;;;;;;;;;;;;;5111881;28;20029;-88
2022/03/28 22:06:24;;;;;;;;;;;;;;;;;;5110296;28;20556;-88
2022/03/28 22:08:50;;;;;;;;;;;;;;;;;;5112316;28;19907;-88
2022/03/28 22:11:16;;;;;;;;;;;;;;;;;;5111095;28;20275;-87
2022/03/28 22:13:42;;;;;;;;;;;;;;;;;;5110878;28;19934;-88
2022/03/28 22:16:08;;;;;;;;;;;;;;;;;;5112149;28;19915;-89
2022/03/28 22:18:34;;;;;;;;;;;;;;;;;;5111927;28;19977;-89
2022/03/28 22:21:01;;;;;;;;;;;;;;;;;;5111497;28;19908;-87
2022/03/28 22:23:26;;;;;;;;;;;;;;;;;;5111294;28;19947;-87
2022/03/28 22:25:52;;;;;;;;;;;;;;;;;;5111917;28;20272;-87
2022/03/28 22:28:18;;;;;;;;;;;;;;;;;;5110459;28;19915;-88
2022/03/28 22:30:44;;;;;;;;;;;;;;;;;;5110554;28;19950;-87
2022/03/28 22:33:10;;;;;;;;;;;;;;;;;;5110545;28;19908;-89
2022/03/28 22:35:36;;;;;;;;;;;;;;;;;;5110626;28;19908;-91
2022/03/28 22:38:02;;;;;;;;;;;;;;;;;;5110620;28;19930;-87
2022/03/28 22:40:28;;;;;;;;;;;;;;;;;;5112476;28;20378;-89
2022/03/28 22:42:54;;;;;;;;;;;;;;;;;;5111725;28;19916;-92
2022/03/28 22:45:20;;;;;;;;;;;;;;;;;;5110510;28;19907;-87
2022/03/28 22:47:46;;;;;;;;;;;;;;;;;;5110272;28;20314;-91
2022/03/28 22:50:11;;;;;;;;;;;;;;;;;;5110396;28;19987;-89
2022/03/28 22:52:37;;;;;;;;;;;;;;;;;;5110217;28;19916;-88
2022/03/28 22:55:04;;;;;;;;;;;;;;;;;;5111346;28;20386;-89
2022/03/28 22:57:30;;;;;;;;;;;;;;;;;;5110889;28;19911;-89
2022/03/28 22:59:55;;;;;;;;;;;;;;;;;;5111462;28;19911;-91
2022/03/28 23:02:22;;;;;;;;;;;;;;;;;;5110256;28;19947;-90
2022/03/28 23:04:48;;;;;;;;;;;;;;;;;;5110199;28;19912;-88
2022/03/28 23:07:14;;;;;;;;;;;;;;;;;;5109997;28;20280;-88
2022/03/28 23:09:39;;;;;;;;;;;;;;;;;;5110037;28;19915;-89
2022/03/28 23:12:05;;;;;;;;;;;;;;;;;;5109715;28;19908;-87
2022/03/28 23:14:34;;;;;;;;;;;;;;;;;;5110777;28;19915;-86
2022/03/28 23:16:59;;;;;;;;;;;;;;;;;;5110053;28;20364;-89
2022/03/28 23:19:25;;;;;;;;;;;;;;;;;;5110810;28;19907;-88
2022/03/28 23:21:51;;;;;;;;;;;;;;;;;;5110668;28;19908;-86
2022/03/28 23:24:17;;;;;;;;;;;;;;;;;;5110706;28;19912;-89
2022/03/28 23:26:43;;;;;;;;;;;;;;;;;;5110834;28;20259;-92
2022/03/28 23:29:09;;;;;;;;;;;;;;;;;;5109544;28;19907;-88
2022/03/28 23:31:35;;;;;;;;;;;;;;;;;;5109528;28;19912;-87
2022/03/28 23:34:01;;;;;;;;;;;;;;;;;;5110283;28;19907;-87
2022/03/28 23:36:27;;;;;;;;;;;;;;;;;;5109150;28;19942;-89
2022/03/28 23:38:53;;;;;;;;;;;;;;;;;;5110451;28;19954;-90
2022/03/28 23:41:19;;;;;;;;;;;;;;;;;;5109182;28;19908;-87
2022/03/28 23:43:45;;;;;;;;;;;;;;;;;;5109210;28;19919;-87
2022/03/28 23:46:11;;;;;;;;;;;;;;;;;;5109350;28;19955;-87
2022/03/28 23:48:37;;;;;;;;;;;;;;;;;;5109642;28;19908;-89
2022/03/28 23:51:06;;;;;;;;;;;;;;;;;;5110189;28;20060;-88
2022/03/28 23:53:32;;;;;;;;;;;;;;;;;;5110245;28;19951;-86
2022/03/28 23:55:59;;;;;;;;;;;;;;;;;;5109040;28;19966;-87
2022/03/28 23:58:25;;;;;;;;;;;;;;;;;;5109173;28;20123;-87
